Latest Weather Observations for Snowtown

IDS60801

Issued at 5:31 pm CDT Friday 27 March 2015 (issued every 30 minutes, with the page automatically refreshed every 10 minutes)

About weather observations | Map of weather stations | Latest weather observations for SA | Other Formats
Station Details ID: 021133 Name: RAYVILLE PARK Lat: -33.77 Lon: 138.22 Height: 109.1 m
Data from the previous 72 hours. | See also: Recent months at Snowtown
Date/Time
CDT
Temp
°C
App
Temp
°C
Dew
Point
Rel
Hum
%
Delta-T
°C
Wind Press
QNH
hPa
Press
MSL
hPa
Rain
since 9 am
mm
Dir
 
Spd
km/h
Gust
km/h
Spd
kts
Gust
kts
27/05:30pm 18.3 14.8 8.6 53 5.0 SSE 17 22 9 12 1025.8 1025.5 0.0
27/05:00pm 18.3 15.4 8.3 52 5.1 SSE 13 20 7 11 1025.9 1025.6 0.0
27/04:30pm 18.3 16.0 9.1 55 4.8 S 11 19 6 10 1026.1 1025.8 0.0
27/04:00pm 17.6 14.1 8.7 56 4.6 SSE 17 22 9 12 1026.3 1026.0 0.0
27/03:30pm 18.0 15.2 8.6 54 4.9 SSE 13 17 7 9 1026.3 1026.0 0.0
27/03:00pm 17.3 13.5 9.2 59 4.2 S 19 24 10 13 1026.7 1026.4 0.0
27/02:30pm 17.6 15.3 9.0 57 4.5 SE 11 17 6 9 1027.0 1026.7 0.0
27/02:00pm 17.5 14.4 8.9 57 4.5 S 15 20 8 11 1027.4 1027.1 0.0
27/01:30pm 17.0 14.1 8.2 56 4.5 SE 13 20 7 11 1027.8 1027.5 0.0
27/01:00pm 17.0 13.4 8.2 56 4.5 S 17 28 9 15 1028.3 1028.0 0.0
27/12:30pm 18.0 14.8 8.6 54 4.8 SSE 15 20 8 11 1028.7 1028.4 0.0
27/12:00pm 16.5 12.7 7.4 55 4.5 SSE 17 26 9 14 1029.2 1028.9 0.0
27/11:30am 17.3 14.2 7.1 51 5.1 SSE 13 20 7 11 1029.6 1029.3 0.0
27/11:00am 15.8 13.2 7.6 58 4.1 S 11 20 6 11 1029.8 1029.5 0.0
27/10:30am 15.9 13.8 8.4 61 3.8 SE 9 15 5 8 1030.0 1029.7 0.0
27/10:00am 14.2 12.7 7.0 62 3.5 SE 4 11 2 6 1030.0 1029.7 0.0
27/09:30am 12.9 11.7 6.3 64 3.1 SE 2 7 1 4 1030.0 1029.7 0.0
27/09:00am 10.7 9.7 5.7 71 2.3 CALM 0 0 0 0 1029.9 1029.6 0.0
27/08:30am 8.5 6.1 5.3 80 1.4 SE 7 9 4 5 1029.6 1029.3 0.0
27/08:00am 5.0 3.4 2.7 85 0.9 CALM 0 0 0 0 1029.4 1029.1 0.0
27/07:30am 5.4 2.7 2.6 82 1.1 SSW 6 11 3 6 1029.1 1028.8 0.0
27/07:00am 7.2 5.8 3.8 79 1.5 CALM 0 0 0 0 1028.8 1028.5 0.0
27/06:30am 8.1 5.1 4.1 76 1.7 SW 9 9 5 5 1028.5 1028.2 0.0
27/06:00am 8.4 5.8 4.0 74 1.9 SW 7 9 4 5 1028.3 1028.0 0.0
27/05:30am 8.4 5.3 3.7 72 2.0 SW 9 11 5 6 1028.1 1027.8 0.0
27/05:00am 9.3 6.8 4.7 73 2.1 SSW 7 11 4 6 1027.9 1027.6 0.0
27/04:30am 7.4 6.0 3.3 75 1.7 CALM 0 0 0 0 1028.0 1027.7 0.0
27/04:00am 8.3 5.8 3.9 74 1.9 SSW 6 7 3 4 1027.9 1027.6 0.0
27/03:30am 10.3 7.4 4.5 67 2.6 SW 9 11 5 6 1028.1 1027.8 0.0
27/03:00am 10.1 6.4 4.7 69 2.4 SW 13 15 7 8 1028.1 1027.8 0.0
27/02:30am 8.9 5.2 4.3 73 2.0 SW 13 15 7 8 1028.3 1028.0 0.0
27/02:00am 8.3 5.2 3.6 72 2.0 SW 9 13 5 7 1028.5 1028.2 0.0
27/01:30am 8.5 5.5 4.3 75 1.8 SW 9 11 5 6 1028.5 1028.2 0.0
27/01:00am 8.0 4.8 3.3 72 2.0 WSW 9 13 5 7 1028.7 1028.4 0.0
27/12:30am 8.2 5.0 3.1 70 2.2 SW 9 11 5 6 1028.8 1028.5 0.0
27/12:00am 9.5 5.7 3.7 67 2.5 SSW 13 15 7 8 1028.9 1028.6 0.0
 
Date/Time
CDT
Temp
°C
App
Temp
°C
Dew
Point
Rel
Hum
%
Delta-T
°C
Wind Press
QNH
hPa
Press
MSL
hPa
Rain
since 9 am
mm
Dir
 
Spd
km/h
Gust
km/h
Spd
kts
Gust
kts
26/11:30pm 9.6 6.0 3.1 64 2.8 WSW 11 15 6 8 1028.9 1028.6 0.0
26/11:00pm 10.2 7.0 3.3 62 3.0 SSW 9 11 5 6 1029.0 1028.7 0.0
26/10:30pm 10.6 8.0 3.4 61 3.1 SSW 6 9 3 5 1029.0 1028.7 0.0
26/10:00pm 10.8 6.8 3.1 59 3.4 WSW 13 17 7 9 1028.8 1028.5 0.0
26/09:30pm 12.0 7.2 2.7 53 4.0 WSW 17 20 9 11 1028.6 1028.3 0.0
26/09:00pm 12.6 7.4 2.5 50 4.4 SW 19 22 10 12 1028.4 1028.1 0.0
26/08:30pm 13.7 8.6 4.0 52 4.4 SW 20 26 11 14 1028.2 1027.9 0.0
26/08:00pm 15.0 10.1 5.0 51 4.7 SW 20 30 11 16 1028.0 1027.7 0.0
26/07:30pm 15.3 10.4 4.9 50 4.9 SW 20 30 11 16 1027.7 1027.4 0.0
26/07:00pm 15.7 8.9 5.3 50 5.0 SW 30 39 16 21 1027.4 1027.1 0.0
26/06:30pm 16.2 9.9 3.9 44 5.7 SW 26 32 14 17 1027.1 1026.8 0.0
26/06:00pm 17.3 10.2 3.6 40 6.4 SW 30 46 16 25 1026.8 1026.5 0.0
26/05:52pm 17.6 10.9 3.9 40 6.5 SW 28 46 15 25 1026.7 1026.4 0.0
26/05:30pm 18.7 11.4 2.5 34 7.4 WSW 30 37 16 20 1026.5 1026.2 0.0
26/05:00pm 18.5 13.1 2.4 34 7.4 SW 20 32 11 17 1026.5 1026.2 0.0
26/04:30pm 17.6 11.5 2.8 37 6.8 SSW 24 32 13 17 1026.4 1026.1 0.0
26/04:00pm 18.0 11.8 1.9 34 7.3 SW 24 33 13 18 1026.4 1026.1 0.0
26/03:30pm 18.3 12.2 3.0 36 7.1 SW 24 39 13 21 1026.4 1026.1 0.0
26/03:00pm 18.6 11.3 2.4 34 7.4 SSW 30 43 16 23 1026.4 1026.1 0.0
26/02:30pm 19.2 13.3 1.7 31 7.9 SW 22 39 12 21 1026.4 1026.1 0.0
26/02:00pm 18.0 12.5 1.9 34 7.3 SSW 20 33 11 18 1026.8 1026.5 0.0
26/01:44pm 17.9 11.2 3.4 38 6.8 SW 28 54 15 29 1026.9 1026.6 0.0
26/01:30pm 17.7 11.2 2.8 37 6.8 SW 26 37 14 20 1027.1 1026.8 0.0
26/01:00pm 17.3 12.2 3.2 39 6.5 SSW 19 33 10 18 1027.3 1027.0 0.0
26/12:30pm 16.6 10.8 4.3 44 5.8 SSW 24 35 13 19 1027.5 1027.2 0.0
26/12:00pm 15.9 10.2 4.9 48 5.2 SSW 24 33 13 18 1027.6 1027.3 0.0
26/11:30am 17.1 11.8 4.8 44 5.8 SSW 22 32 12 17 1027.6 1027.3 0.0
26/11:00am 15.8 10.7 4.2 46 5.4 S 20 30 11 16 1027.5 1027.2 0.0
26/10:30am 15.8 9.8 5.4 50 5.0 S 26 35 14 19 1027.2 1026.9 0.0
26/10:00am 14.6 8.9 5.1 53 4.5 S 24 33 13 18 1027.0 1026.7 0.0
26/09:30am 13.4 10.9 6.5 63 3.3 SSW 9 20 5 11 1026.9 1026.6 0.0
26/09:00am 11.7 8.7 5.8 67 2.7 S 11 13 6 7 1026.7 1026.4 0.8
26/08:30am 10.4 7.9 6.4 76 1.9 SSW 9 15 5 8 1026.3 1026.0 0.8
26/08:00am 7.7 4.6 5.5 86 1.0 WSW 11 11 6 6 1025.9 1025.6 0.8
26/07:30am 6.7 3.4 4.7 87 0.9 WSW 11 13 6 7 1025.4 1025.1 0.8
26/07:00am 6.7 4.1 4.0 83 1.2 SW 7 9 4 5 1025.1 1024.8 0.8
26/06:30am 8.6 5.9 5.5 81 1.4 SW 9 11 5 6 1024.6 1024.3 0.8
26/06:00am 7.8 4.8 5.9 88 0.9 WSW 11 13 6 7 1024.4 1024.1 0.8
26/05:30am 6.6 5.0 4.4 86 0.9 WSW 2 9 1 5 1024.1 1023.8 0.8
26/05:00am 8.9 6.8 6.7 86 1.0 WSW 7 9 4 5 1024.0 1023.7 0.8
26/04:30am 7.8 5.2 6.1 89 0.8 WSW 9 13 5 7 1023.8 1023.5 0.8
26/04:00am 7.0 4.5 5.0 87 0.9 WSW 7 9 4 5 1023.6 1023.3 0.8
26/03:30am 6.4 5.1 3.9 84 1.1 CALM 0 0 0 0 1023.5 1023.2 0.8
26/03:00am 6.7 4.3 4.5 86 1.0 SW 6 7 3 4 1023.6 1023.3 0.8
26/02:30am 6.4 4.0 4.4 87 0.9 SW 6 7 3 4 1023.7 1023.4 0.8
26/02:00am 7.4 4.2 4.9 84 1.1 WSW 11 13 6 7 1023.7 1023.4 0.8
26/01:30am 8.5 5.7 5.1 79 1.5 SW 9 11 5 6 1023.6 1023.3 0.8
26/01:00am 10.2 6.6 5.2 71 2.3 SSW 13 15 7 8 1023.5 1023.2 0.8
26/12:30am 10.6 7.2 6.0 73 2.1 SW 13 17 7 9 1023.2 1022.8 0.8
26/12:00am 10.0 6.2 5.6 74 2.0 SW 15 19 8 10 1023.2 1022.8 0.8
 
Date/Time
CDT
Temp
°C
App
Temp
°C
Dew
Point
Rel
Hum
%
Delta-T
°C
Wind Press
QNH
hPa
Press
MSL
hPa
Rain
since 9 am
mm
Dir
 
Spd
km/h
Gust
km/h
Spd
kts
Gust
kts
25/11:30pm 11.1 7.9 6.8 75 2.0 SSW 13 17 7 9 1023.2 1022.8 0.8
25/11:00pm 11.4 7.8 8.4 82 1.5 SW 17 20 9 11 1023.1 1022.7 0.8
25/10:30pm 12.1 9.6 9.8 86 1.2 SSW 13 17 7 9 1022.9 1022.5 0.8
25/10:00pm 12.6 9.9 10.5 87 1.1 SW 15 20 8 11 1022.7 1022.3 0.8
25/09:30pm 12.4 10.3 11.1 92 0.7 SSW 13 19 7 10 1022.1 1021.8 0.8
25/09:00pm 12.5 9.3 11.4 93 0.6 SSW 19 28 10 15 1021.9 1021.6 0.8
25/08:30pm 12.5 8.0 11.4 93 0.6 SSW 26 35 14 19 1021.5 1021.2 0.8
25/08:00pm 13.6 8.2 12.3 92 0.7 SW 32 43 17 23 1020.9 1020.6 0.0
25/07:30pm 14.8 9.7 11.9 83 1.6 SSW 30 41 16 22 1020.0 1019.7 0.0
25/07:00pm 15.4 10.1 13.1 86 1.3 SW 33 46 18 25 1019.3 1019.0 0.0
25/06:33pm 16.2 11.0 13.3 83 1.6 WSW 33 52 18 28 1019.0 1018.7 0.0
25/06:30pm 16.4 10.3 12.9 80 1.9 WSW 37 57 20 31 1019.0 1018.7 0.0
25/06:25pm 17.0 11.4 11.5 70 3.0 W 32 57 17 31 1018.9 1018.6 0.0
25/06:22pm 18.9 13.2 8.3 50 5.5 W 28 57 15 31 1018.7 1018.4 0.0
25/06:00pm 20.5 13.7 5.3 37 7.5 W 30 41 16 22 1018.4 1018.1 0.0
25/05:30pm 20.7 14.0 3.9 33 8.1 WNW 28 41 15 22 1018.2 1017.9 0.0
25/05:00pm 22.0 14.5 3.6 30 8.9 W 32 43 17 23 1018.3 1018.0 0.0
25/04:33pm 21.9 15.2 3.6 30 8.9 W 28 46 15 25 1018.2 1017.9 0.0
25/04:30pm 21.4 13.9 3.6 31 8.6 W 32 46 17 25 1018.3 1018.0 0.0
25/04:02pm 21.1 13.8 2.4 29 8.8 W 30 48 16 26 1018.4 1018.1 0.0
25/04:00pm 21.0 14.1 2.8 30 8.6 W 28 41 15 22 1018.4 1018.1 0.0
25/03:30pm 20.0 13.1 2.8 32 8.1 W 28 48 15 26 1018.6 1018.3 0.0
25/03:09pm 21.0 14.1 2.8 30 8.6 WSW 28 46 15 25 1018.8 1018.5 0.0
25/03:00pm 21.7 14.1 2.9 29 8.9 W 32 46 17 25 1018.8 1018.5 0.0
25/02:30pm 20.1 13.2 2.5 31 8.2 WSW 28 39 15 21 1018.9 1018.6 0.0
25/02:00pm 20.2 12.8 1.6 29 8.5 WNW 30 39 16 21 1019.5 1019.2 0.0
25/01:30pm 18.3 12.8 5.8 44 6.1 WNW 24 33 13 18 1020.2 1019.9 0.0
25/01:00pm 17.6 13.8 7.4 51 5.2 WNW 17 26 9 14 1020.4 1020.1 0.0
25/12:30pm 16.1 12.5 6.8 54 4.6 WSW 15 20 8 11 1020.5 1020.2 0.0
25/12:00pm 16.5 13.1 5.8 49 5.2 W 13 19 7 10 1020.7 1020.4 0.0
25/11:30am 17.0 12.6 5.0 45 5.7 NW 17 26 9 14 1020.7 1020.4 0.0
25/11:00am 17.0 12.6 5.0 45 5.8 NW 17 24 9 13 1020.9 1020.6 0.0
25/10:30am 16.6 12.7 5.3 47 5.4 NW 15 22 8 12 1021.1 1020.8 0.0
25/10:00am 15.9 11.7 5.5 50 5.0 NNE 17 20 9 11 1021.0 1020.7 0.0
25/09:30am 14.4 10.2 5.5 55 4.2 NNE 17 22 9 12 1021.1 1020.8 0.0
25/09:00am 12.6 9.6 6.0 64 3.1 NNE 11 17 6 9 1021.2 1020.9 0.0
25/08:30am 9.4 6.7 5.8 78 1.6 N 9 13 5 7 1020.9 1020.6 0.0
25/08:00am 5.8 3.1 2.8 81 1.2 NNW 6 9 3 5 1020.9 1020.6 0.0
25/07:30am 6.8 3.1 4.3 84 1.1 NNW 13 15 7 8 1020.9 1020.6 0.0
25/07:00am 5.5 1.9 3.2 85 1.0 N 11 13 6 7 1020.5 1020.2 0.0
25/06:30am 5.6 1.7 3.3 85 1.0 N 13 15 7 8 1020.5 1020.2 0.0
25/06:00am 4.8 1.9 1.6 80 1.3 SE 6 7 3 4 1020.2 1019.9 0.0
25/05:30am 6.2 3.4 3.0 80 1.3 W 7 9 4 5 1020.3 1020.0 0.0
25/05:00am 6.4 5.0 3.6 82 1.2 CALM 0 4 0 2 1020.3 1020.0 0.0
25/04:30am 6.1 3.4 2.7 79 1.4 W 6 9 3 5 1020.2 1019.9 0.0
25/04:00am 7.4 5.2 3.5 76 1.7 WSW 4 9 2 5 1020.4 1020.1 0.0
25/03:30am 8.3 6.7 4.3 76 1.8 WSW 2 6 1 3 1020.4 1020.1 0.0
25/03:00am 9.1 6.8 4.9 75 1.9 WSW 6 7 3 4 1020.8 1020.5 0.0
25/02:30am 8.8 6.3 5.0 77 1.7 SW 7 11 4 6 1021.0 1020.7 0.0
25/02:00am 9.0 6.2 5.0 76 1.8 SW 9 11 5 6 1021.1 1020.8 0.0
25/01:30am 9.3 5.7 5.1 75 1.9 SW 13 15 7 8 1021.1 1020.8 0.0
25/01:00am 9.3 6.8 4.9 74 2.0 SW 7 11 4 6 1021.4 1021.1 0.0
25/12:30am 8.8 6.3 4.8 76 1.8 WSW 7 11 4 6 1021.8 1021.5 0.0
25/12:00am 8.6 5.3 4.8 77 1.7 WSW 11 13 6 7 1022.1 1021.8 0.0
 
Date/Time
CDT
Temp
°C
App
Temp
°C
Dew
Point
Rel
Hum
%
Delta-T
°C
Wind Press
QNH
hPa
Press
MSL
hPa
Rain
since 9 am
mm
Dir
 
Spd
km/h
Gust
km/h
Spd
kts
Gust
kts
24/11:30pm 8.5 5.6 4.7 77 1.7 SW 9 11 5 6 1022.1 1021.8 0.0
24/11:00pm 9.0 6.1 4.8 75 1.9 SW 9 13 5 7 1022.0 1021.7 0.0
24/10:30pm 9.7 6.5 5.1 73 2.1 SW 11 13 6 7 1022.3 1022.0 0.0
24/10:00pm 10.3 7.5 5.1 70 2.4 SW 9 11 5 6 1022.3 1022.0 0.0
24/09:30pm 11.4 8.7 5.5 67 2.7 SW 9 13 5 7 1022.6 1022.2 0.0
24/09:00pm 12.9 9.5 6.0 63 3.3 SW 13 17 7 9 1022.1 1021.8 0.0
24/08:30pm 14.2 10.0 5.8 57 4.0 SSW 17 20 9 11 1021.8 1021.5 0.0
24/08:00pm 15.5 11.5 4.8 49 5.1 S 15 24 8 13 1021.5 1021.2 0.0
24/07:30pm 16.3 11.4 5.0 47 5.4 S 20 26 11 14 1021.1 1020.8 0.0
24/07:00pm 17.2 12.2 3.8 41 6.3 SSW 19 22 10 12 1021.0 1020.7 0.0
24/06:30pm 18.1 13.4 3.2 37 6.9 S 17 28 9 15 1020.7 1020.4 0.0
24/06:00pm 18.3 13.3 3.8 38 6.8 S 19 28 10 15 1020.7 1020.4 0.0

Other Formats:

Comma delimited format used in spreadsheet applications
http://www.bom.gov.au/fwo/IDS60801/IDS60801.95670.axf

JavaScript Object Notation format (JSON) in row-major order
http://www.bom.gov.au/fwo/IDS60801/IDS60801.95670.json